KBFF/BFF METAR and TAF weather

Enter ICAO airport designator
Station Type Date Time Source
KBFF METAR 2020/07/15 03:53 UTC NOAA

KBFF 150353Z AUTO 11009KT 10SM CLR 21/14 A3006 RMK AO2 SLP140 T02060139


Station Type Date Time Source
KBFF Decoded METAR 2020/07/15 03:53 UTC NOAA

SCOTTSBLUFF HEILIG FIELD, NE, United States (KBFF) 41-52N 103-36W 1203M
Jul 14, 2020 - 11:53 PM EDT / 2020.07.15 0353 UTC
Wind: from the ESE (110 degrees) at 10 MPH (9 KT):0
Visibility: 10 mile(s):0
Sky conditions: clear
Temperature: 69.1 F (20.6 C)
Dew Point: 57.0 F (13.9 C)
Relative Humidity: 65%
Pressure (altimeter): 30.06 in. Hg (1017 hPa)
ob: KBFF 150353Z AUTO 11009KT 10SM CLR 21/14 A3006 RMK AO2 SLP140 T02060139
cycle: 4

Station Type Date Time Source
KBFF TAF 2020/07/14 18:27 UTC NOAA

TAF KBFF 141725Z 1418/1518 09011KT P6SM OVC035
FM150100 12008KT P6SM VCSH OVC050
FM151100 11007KT P6SM OVC025
FM151400 VRB03KT P6SM SCT040

Example: see airport list